createdAt,value
2018-04-30T00:00:07.293Z,98081.00
2018-04-30T00:02:36.494Z,98107.70
2018-04-30T00:05:05.705Z,98115.48
2018-04-30T00:07:34.932Z,98101.72
2018-04-30T00:10:04.957Z,98092.49
2018-04-30T00:12:34.292Z,98075.77
2018-04-30T00:15:04.306Z,98087.47
2018-04-30T00:17:33.557Z,98064.76
2018-04-30T00:20:02.756Z,98077.03
2018-04-30T00:22:32.114Z,98058.03
2018-04-30T00:25:01.320Z,98053.53
2018-04-30T00:27:31.294Z,98051.68
2018-04-30T00:30:00.550Z,98045.52
2018-04-30T00:32:29.900Z,98052.58
2018-04-30T00:34:59.107Z,98047.98
2018-04-30T00:37:28.367Z,98054.09
2018-04-30T00:39:57.562Z,98065.69
2018-04-30T00:42:26.800Z,98065.69
2018-04-30T00:44:56.005Z,98058.99
2018-04-30T00:47:25.204Z,98043.31
2018-04-30T00:49:55.214Z,98057.78
2018-04-30T00:52:24.457Z,98049.39
2018-04-30T00:55:00.403Z,98039.80
2018-04-30T00:57:29.630Z,98028.26
2018-04-30T00:59:58.858Z,98017.72
2018-04-30T01:02:28.106Z,97998.17
2018-04-30T01:04:57.334Z,98012.06
2018-04-30T01:07:26.613Z,98012.33
2018-04-30T01:09:55.885Z,98008.46
2018-04-30T01:12:25.958Z,98009.67
2018-04-30T01:14:55.175Z,98014.79
2018-04-30T01:17:24.608Z,98005.11
2018-04-30T01:19:54.683Z,98004.56
2018-04-30T01:22:23.937Z,98009.34
2018-04-30T01:24:53.177Z,98004.30
2018-04-30T01:27:22.401Z,97992.79
2018-04-30T01:29:51.658Z,97983.06
2018-04-30T01:32:20.882Z,97976.61
2018-04-30T01:34:50.190Z,97967.66
2018-04-30T01:37:19.412Z,97971.01
2018-04-30T01:39:49.390Z,97973.41
2018-04-30T01:42:18.618Z,97978.14
2018-04-30T01:44:49.527Z,97973.16
2018-04-30T01:47:18.811Z,97974.95
2018-04-30T01:49:48.058Z,97974.77
2018-04-30T01:52:18.049Z,97981.08
2018-04-30T01:54:47.289Z,97970.40
2018-04-30T01:57:16.495Z,97961.64
2018-04-30T01:59:45.810Z,97973.22
2018-04-30T02:02:15.034Z,97974.22
2018-04-30T02:04:44.259Z,97979.53
2018-04-30T02:07:14.413Z,97997.13
2018-04-30T02:09:43.638Z,98000.51
2018-04-30T02:12:13.014Z,98001.72
2018-04-30T02:14:42.257Z,97994.88
2018-04-30T02:17:11.511Z,97971.06
2018-04-30T02:19:40.754Z,97978.24
2018-04-30T02:22:09.972Z,97981.00
2018-04-30T02:24:39.150Z,97981.98
2018-04-30T02:27:08.398Z,97980.25
2018-04-30T02:29:37.596Z,97982.80
2018-04-30T02:32:06.910Z,97975.97
2018-04-30T02:34:36.191Z,97979.28
2018-04-30T02:37:05.432Z,97975.95
2018-04-30T02:39:34.649Z,97972.24
2018-04-30T02:42:04.639Z,97976.75
2018-04-30T02:44:33.874Z,97974.39
2018-04-30T02:47:03.868Z,97972.09
2018-04-30T02:49:33.243Z,97975.59
2018-04-30T02:52:02.578Z,97976.75
2018-04-30T02:54:32.092Z,97976.76
2018-04-30T02:57:02.085Z,97972.70
2018-04-30T02:59:31.311Z,97964.11
2018-04-30T03:02:01.337Z,97958.89
2018-04-30T03:04:30.589Z,97963.81
2018-04-30T03:06:59.802Z,97964.20
2018-04-30T03:09:29.035Z,97964.79
2018-04-30T03:11:58.249Z,97949.19
2018-04-30T03:14:27.488Z,97939.25
2018-04-30T03:16:56.711Z,97943.91
2018-04-30T03:19:26.729Z,97962.81
2018-04-30T03:21:56.669Z,97954.60
2018-04-30T03:24:25.931Z,97954.84
2018-04-30T03:26:55.125Z,97961.84
2018-04-30T03:29:24.349Z,97969.63
2018-04-30T03:31:53.571Z,97966.70
2018-04-30T03:34:22.841Z,97967.09
2018-04-30T03:36:52.824Z,97966.70
2018-04-30T03:39:22.044Z,97965.73
2018-04-30T03:41:52.009Z,97960.64
2018-04-30T03:44:21.217Z,97959.05
2018-04-30T03:46:50.421Z,97966.67
2018-04-30T03:49:19.674Z,97973.73
2018-04-30T03:51:48.885Z,97968.66
2018-04-30T03:54:18.123Z,97971.00
2018-04-30T03:56:47.489Z,97967.29
2018-04-30T03:59:16.660Z,97972.91
2018-04-30T04:02:03.609Z,97966.66
2018-04-30T04:04:50.419Z,97968.09
2018-04-30T04:07:19.645Z,97976.06
2018-04-30T04:09:48.912Z,97979.18
2018-04-30T04:12:18.963Z,97993.44
2018-04-30T04:14:48.241Z,98005.13
2018-04-30T04:17:17.449Z,98016.86
2018-04-30T04:19:46.661Z,98008.44
2018-04-30T04:22:15.890Z,98009.42
2018-04-30T04:24:45.119Z,98015.45
2018-04-30T04:27:14.345Z,98006.09
2018-04-30T04:29:43.913Z,98006.89
2018-04-30T04:32:13.877Z,98010.18
2018-04-30T04:34:43.107Z,98005.88
2018-04-30T04:37:12.332Z,98014.87
2018-04-30T04:39:41.543Z,98006.84
2018-04-30T04:42:10.837Z,98019.53
2018-04-30T04:44:40.058Z,98023.02
2018-04-30T04:47:09.328Z,98024.99
2018-04-30T04:49:38.521Z,98033.13
2018-04-30T04:52:08.077Z,98028.64
2018-04-30T04:54:38.078Z,98041.53
2018-04-30T04:57:07.314Z,98043.48
2018-04-30T04:59:36.623Z,98042.91
2018-04-30T05:02:05.832Z,98047.78
2018-04-30T05:04:35.069Z,98052.27
2018-04-30T05:07:04.282Z,98058.14
2018-04-30T05:09:34.279Z,98054.86
2018-04-30T05:12:03.517Z,98063.44
2018-04-30T05:14:32.783Z,98064.25
2018-04-30T05:17:01.980Z,98060.13
2018-04-30T05:19:31.302Z,98065.00
2018-04-30T05:22:01.290Z,98066.77
2018-04-30T05:24:31.214Z,98086.52
2018-04-30T05:27:00.725Z,98091.05
2018-04-30T05:29:29.949Z,98082.87
2018-04-30T05:31:59.304Z,98075.84
2018-04-30T05:34:28.592Z,98083.09
2018-04-30T05:36:57.830Z,98071.40
2018-04-30T05:39:27.996Z,98088.18
2018-04-30T05:41:57.221Z,98097.94
2018-04-30T05:44:26.649Z,98107.88
2018-04-30T05:46:56.733Z,98100.08
2018-04-30T05:49:25.973Z,98108.30
2018-04-30T05:51:55.177Z,98112.20
2018-04-30T05:54:24.448Z,98119.63
2018-04-30T05:56:53.708Z,98127.41
2018-04-30T05:59:22.904Z,98136.36
2018-04-30T06:01:52.134Z,98155.09
2018-04-30T06:04:21.349Z,98158.41
2018-04-30T06:06:51.363Z,98167.36
2018-04-30T06:09:20.619Z,98158.23
2018-04-30T06:11:49.850Z,98168.93
2018-04-30T06:14:19.160Z,98171.07
2018-04-30T06:16:49.226Z,98175.36
2018-04-30T06:19:18.460Z,98167.59
2018-04-30T06:21:47.682Z,98162.14
2018-04-30T06:24:17.814Z,98165.23
2018-04-30T06:26:47.134Z,98159.98
2018-04-30T06:29:16.276Z,98175.96
2018-04-30T06:31:45.546Z,98169.73
2018-04-30T06:34:14.772Z,98188.44
2018-04-30T06:36:44.005Z,98193.88
2018-04-30T06:39:13.252Z,98207.91
2018-04-30T06:41:42.452Z,98210.63
2018-04-30T06:44:11.678Z,98197.39
2018-04-30T06:46:41.745Z,98193.31
2018-04-30T06:49:10.912Z,98195.06
2018-04-30T06:51:40.862Z,98205.96
2018-04-30T06:54:10.163Z,98211.80
2018-04-30T06:56:39.363Z,98205.58
2018-04-30T06:59:08.592Z,98192.92
2018-04-30T07:01:37.818Z,98190.39
2018-04-30T07:04:07.187Z,98204.41
2018-04-30T07:06:36.418Z,98209.66
2018-04-30T07:09:05.729Z,98217.66
2018-04-30T07:11:34.868Z,98219.22
2018-04-30T07:14:04.126Z,98230.30
2018-04-30T07:16:33.382Z,98238.89
2018-04-30T07:19:02.605Z,98235.19
2018-04-30T07:21:31.889Z,98237.91
2018-04-30T07:24:01.237Z,98240.06
2018-04-30T07:26:30.449Z,98238.30
2018-04-30T07:28:59.675Z,98237.72
2018-04-30T07:31:29.579Z,98235.58
2018-04-30T07:33:58.905Z,98249.80
2018-04-30T07:36:28.889Z,98250.58
2018-04-30T07:38:58.123Z,98252.14
2018-04-30T07:41:27.376Z,98240.84
2018-04-30T07:43:56.603Z,98264.98
2018-04-30T07:46:26.619Z,98267.54
2018-04-30T07:48:55.833Z,98271.02
2018-04-30T07:51:25.809Z,98278.45
2018-04-30T07:53:55.028Z,98274.72
2018-04-30T07:56:24.238Z,98276.11
2018-04-30T07:58:53.452Z,98274.15
2018-04-30T08:01:22.669Z,98284.45
2018-04-30T08:03:51.888Z,98295.75
2018-04-30T08:06:21.111Z,98303.55
2018-04-30T08:08:50.306Z,98314.44
2018-04-30T08:11:21.150Z,98324.34
2018-04-30T08:13:51.775Z,98321.81
2018-04-30T08:16:21.026Z,98324.37
2018-04-30T08:18:50.313Z,98334.88
2018-04-30T08:21:19.553Z,98342.67
2018-04-30T08:23:48.784Z,98345.21
2018-04-30T08:26:19.085Z,98339.34
2018-04-30T08:28:48.286Z,98338.95
2018-04-30T08:31:17.503Z,98345.54
2018-04-30T08:33:47.500Z,98346.35
2018-04-30T08:36:16.706Z,98352.94
2018-04-30T08:38:46.772Z,98362.28
2018-04-30T08:41:15.997Z,98358.62
2018-04-30T08:43:45.211Z,98365.05
2018-04-30T08:46:14.437Z,98371.64
2018-04-30T08:48:44.511Z,98383.13
2018-04-30T08:51:13.741Z,98394.74
2018-04-30T08:53:43.030Z,98391.59
2018-04-30T08:56:13.772Z,98397.98
2018-04-30T08:58:43.754Z,98400.31
2018-04-30T09:01:13.025Z,98395.64
2018-04-30T09:03:42.246Z,98382.02
2018-04-30T09:06:12.262Z,98367.06
2018-04-30T09:08:41.486Z,98369.17
2018-04-30T09:11:10.685Z,98365.08
2018-04-30T09:13:40.765Z,98368.38
2018-04-30T09:16:10.007Z,98367.02
2018-04-30T09:18:39.232Z,98377.58
2018-04-30T09:21:08.438Z,98381.31
2018-04-30T09:23:37.672Z,98369.98
2018-04-30T09:26:06.891Z,98372.70
2018-04-30T09:28:36.105Z,98378.97
2018-04-30T09:31:06.099Z,98376.70
2018-04-30T09:33:35.304Z,98388.38
2018-04-30T09:36:05.322Z,98389.75
2018-04-30T09:38:35.347Z,98398.16
2018-04-30T09:41:04.582Z,98407.86
2018-04-30T09:43:33.846Z,98415.64
2018-04-30T09:46:03.173Z,98425.38
2018-04-30T09:48:32.385Z,98429.47
2018-04-30T09:51:01.601Z,98415.45
2018-04-30T09:53:30.837Z,98416.81
2018-04-30T09:56:01.040Z,98418.95
2018-04-30T09:58:30.236Z,98415.48
2018-04-30T10:00:59.501Z,98410.06
2018-04-30T10:03:28.803Z,98414.58
2018-04-30T10:05:58.051Z,98417.33
2018-04-30T10:08:28.063Z,98405.89
2018-04-30T10:10:57.313Z,98412.93
2018-04-30T10:13:26.541Z,98418.02
2018-04-30T10:15:55.808Z,98428.00
2018-04-30T10:18:25.073Z,98423.34
2018-04-30T10:20:55.124Z,98425.69
2018-04-30T10:23:24.380Z,98401.88
2018-04-30T10:25:53.629Z,98397.80
2018-04-30T10:28:23.962Z,98403.29
2018-04-30T10:30:53.159Z,98399.59
2018-04-30T10:33:22.378Z,98394.95
2018-04-30T10:35:52.388Z,98379.73
2018-04-30T10:38:21.557Z,98381.83
2018-04-30T10:40:50.755Z,98366.34
2018-04-30T10:43:20.001Z,98369.11
2018-04-30T10:45:50.077Z,98369.77
2018-04-30T10:48:19.252Z,98360.70
2018-04-30T10:50:48.467Z,98359.09
2018-04-30T10:53:17.690Z,98357.66
2018-04-30T10:55:46.954Z,98364.05
2018-04-30T10:58:16.160Z,98360.66
2018-04-30T11:00:45.462Z,98369.22
2018-04-30T11:03:15.425Z,98368.78
2018-04-30T11:05:45.413Z,98371.31
2018-04-30T11:08:14.731Z,98377.48
2018-04-30T11:10:44.721Z,98371.22
2018-04-30T11:13:13.976Z,98372.39
2018-04-30T11:15:43.177Z,98377.94
2018-04-30T11:18:12.419Z,98370.98
2018-04-30T11:20:41.647Z,98371.64
2018-04-30T11:23:11.611Z,98369.61
2018-04-30T11:25:40.926Z,98377.92
2018-04-30T11:28:10.145Z,98382.38
2018-04-30T11:30:39.458Z,98388.77
2018-04-30T11:33:09.427Z,98399.67
2018-04-30T11:35:38.651Z,98396.48
2018-04-30T11:38:07.959Z,98396.56
2018-04-30T11:40:37.185Z,98395.64
2018-04-30T11:43:06.436Z,98402.16
2018-04-30T11:45:35.655Z,98402.14
2018-04-30T11:48:05.697Z,98407.45
2018-04-30T11:50:34.980Z,98420.22
2018-04-30T11:53:04.953Z,98423.19
2018-04-30T11:55:34.166Z,98425.94
2018-04-30T11:58:03.469Z,98428.92
2018-04-30T12:00:32.698Z,98424.81
2018-04-30T12:03:02.673Z,98406.83
2018-04-30T12:05:31.935Z,98419.52
2018-04-30T12:08:01.289Z,98415.22
2018-04-30T12:10:30.564Z,98428.05
2018-04-30T12:12:59.754Z,98421.30
2018-04-30T12:15:28.995Z,98421.81
2018-04-30T12:17:58.225Z,98413.00
2018-04-30T12:20:27.614Z,98431.20
2018-04-30T12:22:56.842Z,98421.50
2018-04-30T12:25:26.146Z,98419.98
2018-04-30T12:27:56.088Z,98409.00
2018-04-30T12:30:25.288Z,98407.47
2018-04-30T12:32:55.308Z,98408.82
2018-04-30T12:35:24.537Z,98405.23
2018-04-30T12:37:53.920Z,98389.30
2018-04-30T12:40:23.920Z,98396.25
2018-04-30T12:42:53.425Z,98394.76
2018-04-30T12:45:22.638Z,98397.84
2018-04-30T12:47:51.968Z,98395.69
2018-04-30T12:50:21.319Z,98395.07
2018-04-30T12:52:50.682Z,98395.56
2018-04-30T12:55:19.865Z,98396.89
2018-04-30T12:57:49.234Z,98413.03
2018-04-30T13:00:18.514Z,98412.97
2018-04-30T13:02:47.735Z,98403.78
2018-04-30T13:05:17.730Z,98400.05
2018-04-30T13:07:46.957Z,98403.62
2018-04-30T13:10:16.182Z,98399.50
2018-04-30T13:12:45.403Z,98415.19
2018-04-30T13:15:14.690Z,98428.09
2018-04-30T13:17:43.910Z,98423.67
2018-04-30T13:20:13.142Z,98432.15
2018-04-30T13:22:43.126Z,98435.14
2018-04-30T13:25:12.345Z,98434.54
2018-04-30T13:27:41.621Z,98443.48
2018-04-30T13:30:10.858Z,98441.39
2018-04-30T13:32:40.052Z,98437.84
2018-04-30T13:35:10.037Z,98436.86
2018-04-30T13:37:39.228Z,98425.83
2018-04-30T13:40:08.455Z,98437.97
2018-04-30T13:42:37.659Z,98439.37
2018-04-30T13:45:07.814Z,98445.50
2018-04-30T13:47:37.022Z,98434.38
2018-04-30T13:50:06.263Z,98434.80
2018-04-30T13:52:36.253Z,98451.98
2018-04-30T13:55:05.513Z,98456.66
2018-04-30T13:57:34.761Z,98456.11
2018-04-30T14:00:03.998Z,98450.81
2018-04-30T14:02:33.997Z,98452.78
2018-04-30T14:05:04.004Z,98449.08
2018-04-30T14:07:33.221Z,98449.45
2018-04-30T14:10:03.476Z,98431.83
2018-04-30T14:12:32.702Z,98440.44
2018-04-30T14:15:01.929Z,98433.75
2018-04-30T14:17:31.144Z,98445.70
2018-04-30T14:20:00.457Z,98449.22
2018-04-30T14:22:29.873Z,98442.79
2018-04-30T14:24:59.101Z,98447.90
2018-04-30T14:27:28.329Z,98443.64
2018-04-30T14:29:58.441Z,98449.77
2018-04-30T14:32:28.434Z,98472.30
2018-04-30T14:34:57.663Z,98473.50
2018-04-30T14:37:27.668Z,98480.80
2018-04-30T14:39:57.667Z,98482.56
2018-04-30T14:42:26.884Z,98506.75
2018-04-30T14:44:56.867Z,98501.41
2018-04-30T14:47:26.134Z,98489.67
2018-04-30T14:49:55.370Z,98498.42
2018-04-30T14:52:24.578Z,98499.37
2018-04-30T14:54:54.627Z,98495.67
2018-04-30T14:57:24.608Z,98494.52
2018-04-30T14:59:53.848Z,98506.66
2018-04-30T15:02:23.077Z,98503.55
2018-04-30T15:04:52.309Z,98504.55
2018-04-30T15:07:21.565Z,98497.92
2018-04-30T15:09:50.787Z,98503.98
2018-04-30T15:12:19.990Z,98509.23
2018-04-30T15:14:49.292Z,98497.51
2018-04-30T15:17:18.482Z,98519.36
2018-04-30T15:19:47.816Z,98518.36
2018-04-30T15:22:17.799Z,98513.29
2018-04-30T15:24:47.058Z,98511.55
2018-04-30T15:27:16.308Z,98504.92
2018-04-30T15:29:45.929Z,98509.59
2018-04-30T15:32:15.926Z,98507.25
2018-04-30T15:34:45.222Z,98507.27
2018-04-30T15:37:14.457Z,98506.48
2018-04-30T15:39:43.679Z,98510.36
2018-04-30T15:42:12.917Z,98507.66
2018-04-30T15:44:42.135Z,98499.27
2018-04-30T15:47:12.114Z,98493.80
2018-04-30T15:49:41.321Z,98502.17
2018-04-30T15:52:10.578Z,98511.70
2018-04-30T15:54:39.831Z,98518.73
2018-04-30T15:57:09.009Z,98514.41
2018-04-30T15:59:38.258Z,98513.83
2018-04-30T16:02:07.488Z,98525.11
2018-04-30T16:04:37.564Z,98530.55
2018-04-30T16:07:07.574Z,98521.16
2018-04-30T16:09:37.580Z,98517.06
2018-04-30T16:12:06.809Z,98523.69
2018-04-30T16:14:36.070Z,98512.16
2018-04-30T16:17:05.269Z,98516.64
2018-04-30T16:19:34.485Z,98516.80
2018-04-30T16:22:04.457Z,98509.56
2018-04-30T16:24:33.749Z,98509.91
2018-04-30T16:27:03.753Z,98521.95
2018-04-30T16:29:32.982Z,98516.02
2018-04-30T16:32:02.185Z,98526.26
2018-04-30T16:34:31.456Z,98515.99
2018-04-30T16:37:00.674Z,98506.02
2018-04-30T16:39:29.942Z,98514.39
2018-04-30T16:41:59.186Z,98508.48
2018-04-30T16:44:28.448Z,98507.28
2018-04-30T16:46:57.658Z,98503.19
2018-04-30T16:49:26.919Z,98504.59
2018-04-30T16:51:56.899Z,98496.08
2018-04-30T16:54:26.138Z,98482.12
2018-04-30T16:56:55.396Z,98484.73
2018-04-30T16:59:24.629Z,98485.36
2018-04-30T17:01:53.853Z,98492.17
2018-04-30T17:04:23.098Z,98484.03
2018-04-30T17:06:52.283Z,98483.80
2018-04-30T17:09:21.516Z,98481.08
2018-04-30T17:11:50.769Z,98482.48
2018-04-30T17:14:19.984Z,98477.45
2018-04-30T17:16:49.162Z,98473.52
2018-04-30T17:19:19.196Z,98472.39
2018-04-30T17:21:48.422Z,98472.00
2018-04-30T17:24:17.692Z,98469.31
2018-04-30T17:26:46.864Z,98459.34
2018-04-30T17:29:16.066Z,98459.31
2018-04-30T17:31:46.160Z,98466.90
2018-04-30T17:34:15.410Z,98467.67
2018-04-30T17:36:44.631Z,98457.20
2018-04-30T17:39:13.841Z,98458.33
2018-04-30T17:41:43.102Z,98452.68
2018-04-30T17:44:12.327Z,98461.41
2018-04-30T17:46:41.564Z,98466.78
2018-04-30T17:49:10.810Z,98461.09
2018-04-30T18:07:55.120Z,98445.00
2018-04-30T18:10:24.352Z,98444.61
2018-04-30T18:12:53.719Z,98457.48
2018-04-30T18:15:22.975Z,98450.30
2018-04-30T18:17:52.239Z,98448.11
2018-04-30T18:20:21.565Z,98446.61
2018-04-30T18:22:51.551Z,98463.73
2018-04-30T18:25:21.685Z,98464.48
2018-04-30T18:27:51.867Z,98471.45
2018-04-30T18:30:21.093Z,98463.99
2018-04-30T18:32:51.089Z,98458.53
2018-04-30T18:35:20.342Z,98472.86
2018-04-30T18:37:49.553Z,98475.38
2018-04-30T18:40:18.899Z,98471.98
2018-04-30T18:42:48.109Z,98464.09
2018-04-30T18:45:18.267Z,98467.33
2018-04-30T18:47:47.475Z,98462.44
2018-04-30T18:50:17.434Z,98473.51
2018-04-30T18:52:47.048Z,98470.25
2018-04-30T18:55:16.314Z,98474.41
2018-04-30T18:57:45.520Z,98458.02
2018-04-30T19:00:14.774Z,98459.40
2018-04-30T19:02:44.015Z,98449.33
2018-04-30T19:05:13.295Z,98445.22
2018-04-30T19:07:43.206Z,98440.50
2018-04-30T19:10:12.455Z,98447.48
2018-04-30T19:12:41.699Z,98452.06
2018-04-30T19:15:10.943Z,98450.44
2018-04-30T19:17:40.175Z,98460.38
2018-04-30T19:20:10.208Z,98455.34
2018-04-30T19:22:40.153Z,98438.75
2018-04-30T19:25:10.956Z,98441.98
2018-04-30T19:27:40.188Z,98436.80
2018-04-30T19:30:09.408Z,98430.30
2018-04-30T19:32:38.656Z,98439.81
2018-04-30T19:35:07.882Z,98430.32
2018-04-30T19:37:37.143Z,98432.87
2018-04-30T19:40:07.097Z,98425.21
2018-04-30T19:42:36.337Z,98436.70
2018-04-30T19:45:06.980Z,98432.63
2018-04-30T19:47:36.241Z,98431.20
2018-04-30T19:50:05.461Z,98438.58
2018-04-30T19:52:35.466Z,98436.27
2018-04-30T19:55:04.693Z,98424.58
2018-04-30T19:57:33.921Z,98430.92
2018-04-30T20:00:03.197Z,98427.97
2018-04-30T20:02:32.441Z,98416.37
2018-04-30T20:05:01.697Z,98419.16
2018-04-30T20:07:30.889Z,98415.59
2018-04-30T20:10:00.108Z,98408.72
2018-04-30T20:12:29.312Z,98411.05
2018-04-30T20:14:58.594Z,98421.89
2018-04-30T20:17:27.822Z,98423.72
2018-04-30T20:19:57.049Z,98422.44
2018-04-30T20:22:26.347Z,98420.23
2018-04-30T20:24:55.572Z,98424.68
2018-04-30T20:27:24.823Z,98421.38
2018-04-30T20:29:54.878Z,98418.82
2018-04-30T20:32:24.134Z,98420.50
2018-04-30T20:34:53.413Z,98427.59
2018-04-30T20:37:22.652Z,98409.34
2018-04-30T20:39:51.857Z,98419.03
2018-04-30T20:42:21.834Z,98423.84
2018-04-30T20:44:51.955Z,98429.84
2018-04-30T20:47:21.198Z,98425.93
2018-04-30T20:49:50.437Z,98411.45
2018-04-30T20:52:19.689Z,98439.64
2018-04-30T20:54:49.681Z,98427.88
2018-04-30T20:57:18.939Z,98422.89
2018-04-30T20:59:48.178Z,98424.42
2018-04-30T21:02:17.430Z,98430.95
2018-04-30T21:04:46.631Z,98431.71
2018-04-30T21:07:15.847Z,98431.10
2018-04-30T21:09:45.821Z,98434.15
2018-04-30T21:12:15.920Z,98439.44
2018-04-30T21:14:45.141Z,98460.06
2018-04-30T21:17:14.426Z,98443.66
2018-04-30T21:19:44.406Z,98451.89
2018-04-30T21:22:13.753Z,98451.98
2018-04-30T21:24:43.039Z,98454.51
2018-04-30T21:27:13.010Z,98460.62
2018-04-30T21:29:42.292Z,98466.61
2018-04-30T21:32:11.491Z,98462.73
2018-04-30T21:34:40.729Z,98474.61
2018-04-30T21:37:10.018Z,98481.56
2018-04-30T21:39:39.266Z,98483.48
2018-04-30T21:42:08.483Z,98476.72
2018-04-30T21:44:37.685Z,98478.19
2018-04-30T21:47:06.948Z,98481.92
2018-04-30T21:49:36.938Z,98492.58
2018-04-30T21:52:06.256Z,98476.73
2018-04-30T21:54:36.240Z,98492.99
2018-04-30T21:57:05.431Z,98485.47
2018-04-30T21:59:34.653Z,98482.80
2018-04-30T22:02:03.898Z,98486.64
2018-04-30T22:04:33.162Z,98496.42
2018-04-30T22:07:03.126Z,98491.69
2018-04-30T22:09:32.369Z,98492.73
2018-04-30T22:12:01.592Z,98487.32
2018-04-30T22:14:31.527Z,98493.27
2018-04-30T22:17:00.741Z,98503.97
2018-04-30T22:19:29.974Z,98508.45
2018-04-30T22:21:59.974Z,98498.20
2018-04-30T22:24:29.198Z,98496.50
2018-04-30T22:26:59.182Z,98503.88
2018-04-30T22:29:28.475Z,98502.03
2018-04-30T22:31:57.688Z,98505.70
2018-04-30T22:34:26.881Z,98509.70
2018-04-30T22:36:56.169Z,98515.25
2018-04-30T22:39:25.434Z,98527.29
2018-04-30T22:41:54.684Z,98523.45
2018-04-30T22:44:24.723Z,98536.91
2018-04-30T22:46:54.718Z,98532.27
2018-04-30T22:49:23.898Z,98540.86
2018-04-30T22:51:53.102Z,98545.80
2018-04-30T22:54:22.307Z,98537.54
2018-04-30T22:56:51.523Z,98551.93
2018-04-30T22:59:21.508Z,98557.33
2018-04-30T23:01:50.730Z,98558.47
2018-04-30T23:04:20.713Z,98558.12
2018-04-30T23:06:49.917Z,98567.64
2018-04-30T23:09:19.212Z,98555.54
2018-04-30T23:11:48.462Z,98563.86
2018-04-30T23:14:17.677Z,98576.23
2018-04-30T23:16:46.870Z,98567.30
2018-04-30T23:19:16.097Z,98560.33
2018-04-30T23:21:45.317Z,98580.43
2018-04-30T23:24:14.537Z,98573.34
2018-04-30T23:26:44.538Z,98593.70
2018-04-30T23:29:13.719Z,98581.95
2018-04-30T23:31:42.915Z,98604.84
2018-04-30T23:34:12.158Z,98590.52
2018-04-30T23:36:41.349Z,98599.50
2018-04-30T23:39:10.572Z,98604.21
2018-04-30T23:41:39.771Z,98603.56
2018-04-30T23:44:09.005Z,98603.48
2018-04-30T23:46:38.195Z,98612.25
2018-04-30T23:49:07.447Z,98607.80
2018-04-30T23:51:36.641Z,98603.88
2018-04-30T23:54:05.850Z,98620.76
2018-04-30T23:56:35.062Z,98623.50
2018-04-30T23:59:04.292Z,98627.92
